Verona, WI (53593)

12:28 PM CST on December 04, 2016 (GMT -0600)
Eastview Heights | | Change Station
Active Advisory: Winter Weather Advisory Active Notice: Local Storm Report

Elev 1024 ft 42.98 °N, 89.53 °W | Updated 16 seconds ago

Overcast
Overcast
31.3 °F
Feels Like 31 °F
N
0.0
Wind Variable Wind from South
Gusts 0.0 mph

Today
High -- | Low -- °F
--% Chance of Precip.
Yesterday
High -- | Low -- °F
Precip. -- in
Pressure 29.98 in
Visibility 1.8 miles
Clouds Overcast 600 ft
Windchill 31 °F
Dew Point 30 °F
Humidity 94%
Rainfall 0.00 in
Snow Depth Not available.
7:13 AM 4:23 PM
Waxing Crescent, 24% visible
METAR KC29 041815Z AUTO 17005KT 1 3/4SM OVC006 00/00 A2998 RMK AO1 T00010000
Pressure 29.98 in
Visibility 1.8 miles
Clouds Overcast 600 ft
Windchill 31 °F
Dew Point 30 °F
Humidity 94%
Rainfall 0.00 in
Snow Depth Not available.
7:13 AM 4:23 PM
Waxing Crescent, 24% visible
METAR KC29 041815Z AUTO 17005KT 1 3/4SM OVC006 00/00 A2998 RMK AO1 T00010000

10-Day Weather Forecast

Almanac

Astronomy

Dec. 04, 2016 Rise Set
Actual Time
Civil Twilight
Nautical Twilight
Astronomical Twilight
Moon
Length of Visible Light
Length of Day
Tomorrow will be .
, % of the Moon is Illuminated

Today's Extremes

State Highs State Lows

Community

WunderPhotos

Upload Photos

1,955,639 photos uploaded!

WunderBlog® & News

Nearby

Air Quality

  Air Quality AQ Index Pollutant
Not available.

Snow Depth

Station Depth Elevation

Earthquake Activity

City Distance Mag. Time & Date
Minimum magnitude displayed is 2.5.

Coastal Water Temperatures

Place Temperature

Stations

Nearby Weather Stations

Station Location Temp. Windchill Dew Point Humidity Wind Precip. Elev Updated Type
                   

Watches & Warnings

Winter Weather Advisory
Issued: 12:00 PM CST Dec. 4, 2016 – National Weather Service

... Winter Weather Advisory remains in effect until 6 PM CST this
evening...

A Winter Weather Advisory remains in effect until 6 PM CST this
evening.

* Timing... snow... tapering off in the mid to late afternoon.

* Snow accumulations... additional amounts of 1 to 2 inches for a
total of 3 to 5 inches. Far southern WI will have the highest
amounts.

* Winds... south to southeast at 10 to 15 mph.

* Impacts... reduced visibility and slippery spots on untreated
roads creating hazardous travel.

Precautionary/preparedness actions...

A Winter Weather Advisory for snow means that periods of snow
will cause primarily travel difficulties. Be prepared for snow
covered roads and limited visibilities... and use caution while
driving.